• Join FlightAware (Why Join?)
  • Login
  • US Flag 
12:15AM EST


 

Airport Tracker/Info


-or-


 

Live Flight TrackerFlight Track Log ✈ N600TR ✈ 20-Aug-2013 ✈ KATL - KCAE

Flight Track Log - Related Links

Times and Time Zones

All times are in EDT time to prevent confusion due to time zone crossing. See the N600TR flight status page for this flight to view local times or setup timezone preferences in your user account.

Time Position Orientation Groundspeed Altitude Reporting Facility
EDT Latitude Longitude Course Direction KTS MPH feet Rate Location/Type
12:14PM 33.6333 -84.4000 85° East 158 182 2,300  Level Atlanta TRACON
12:15PM 33.6167 -84.3167 103° East 269 310 3,700 2,040 Climbing Atlanta TRACON
12:16PM 33.6000 -84.2333 103° East 272 313 6,200 2,460 Climbing Atlanta TRACON
12:17PM 33.6183 -83.9087 92° East  Level FlightAware Approximate
12:17PM 33.6000 -84.1036 90° East 303 349 9,600  Level Atlanta Center
12:18PM 33.6345 -83.7803 90° East  Level Estimated
12:18PM 33.6022 -84.0114 88° East 312 359 11,000  Level Atlanta Center
12:19PM 33.6505 -83.6518 85° East  Level Estimated
12:19PM 33.6064 -83.8917 88° East 329 379 12,300  Level Atlanta Center
12:20PM 33.6103 -83.7669 88° East 359 413 15,000 2,280 Climbing Atlanta Center
12:21PM 33.6161 -83.6397 87° East 366 421 16,900 1,620 Climbing Atlanta Center
12:22PM 33.6283 -83.5125 83° East 381 438 18,300 1,500 Climbing Atlanta Center
12:23PM 33.6442 -83.3775 82° East 397 457 20,000 1,500 Climbing Atlanta Center
12:24PM 33.6622 -83.2453 81° East 402 463 21,300 1,200 Climbing Atlanta Center
12:25PM 33.6781 -83.1053 82° East 415 478 22,500 840 Climbing Atlanta Center
12:26PM 33.7017 -82.9450 80° East 424 488 23,000 240 Climbing Atlanta Center
12:27PM 33.7233 -82.7975 80° East 449 517 23,000  Level Atlanta Center
12:28PM 33.7467 -82.6497 79° East 449 517 23,000  Level Atlanta Center
12:29PM 33.7617 -82.4994 83° East 449 517 23,000 -1,380 Level Atlanta Center
12:30PM 33.7681 -82.3544 87° East 444 511 20,300 -2,640 Descending Atlanta Center
12:32PM 33.7797 -82.1331 86° East 427 491 16,000 -2,640 Descending Jacksonville Center
12:33PM 33.7811 -82.0031 89° East 403 464 13,200 -2,460 Descending Jacksonville Center
12:34PM 33.7800 -81.8756 91° East 387 445 11,100 -1,140 Descending Jacksonville Center
12:35PM 33.7811 -81.7581 89° East 367 422 11,000 -60 Descending Jacksonville Center
12:36PM 33.7864 -81.6481 87° East 345 397 11,000 -600 Level Jacksonville Center
12:37PM 33.7875 -81.5456 89° East 319 367 9,900 -1,440 Descending Jacksonville Center
12:38PM 33.7883 -81.4456 89° East 302 348 8,200 -2,100 Descending Jacksonville Center
12:39PM 33.8442 -81.3797 44° Northeast 269 310 5,700 -2,520 Descending Jacksonville Center
12:40PM 33.9133 -81.4061 342° North 207 238 3,300 -1,440 Descending Jacksonville Center
12:41PM 33.9717 -81.4200 349° North 198 228 2,900 -240 Descending Jacksonville Center
12:42PM 33.9919 -81.3622 67° East 164 189 2,900  Level Jacksonville Center
12:43PM 33.9786 -81.3022 105° East 141 162 2,900  Level Jacksonville Center